Time;durP1;ratioP1;P1;durP2;ratioP2;P2;SDS_P1;SDS_P2;PMS_P1;PMS_P2;Temp;Humidity;BMP_temperature;BMP_pressure;BME280_temperature;BME280_humidity;BME280_pressure;Samples;Min_cycle;Max_cycle;Signal;HPM_P1;HPM_P2
2022/01/21 00:02:20;;;;;;;0.73;0.30;;;14.00;99.90;;;;;;4909489;29;20479;-64
2022/01/21 00:04:52;;;;;;;0.57;0.30;;;14.00;99.90;;;;;;4910480;29;20484;-64
2022/01/21 00:07:24;;;;;;;0.40;0.23;;;13.90;99.90;;;;;;4921397;29;20455;-65
2022/01/21 00:09:56;;;;;;;0.57;0.20;;;13.90;99.90;;;;;;4916185;29;20463;-64
2022/01/21 00:12:29;;;;;;;0.60;0.43;;;13.80;99.90;;;;;;4914702;29;20487;-63
2022/01/21 00:15:01;;;;;;;1.90;0.43;;;13.70;99.90;;;;;;4917759;29;20458;-64
2022/01/21 00:17:46;;;;;;;0.40;0.40;;;13.60;99.90;;;;;;4918937;29;20465;-64
2022/01/21 00:31:31;;;;;;;0.40;0.30;;;13.10;99.90;;;;;;4922566;29;20458;-63
2022/01/21 00:34:02;;;;;;;0.40;0.33;;;13.00;99.90;;;;;;4919531;29;20499;-63
2022/01/21 00:36:41;;;;;;;0.40;0.30;;;13.00;99.90;;;;;;4916240;29;20470;-64
2022/01/21 00:39:14;;;;;;;0.30;0.23;;;12.90;99.90;;;;;;4925072;29;20463;-66
2022/01/21 00:41:55;;;;;;;0.30;0.20;;;13.00;99.90;;;;;;4911269;29;20531;-66
2022/01/21 00:44:29;;;;;;;0.43;0.30;;;12.80;99.90;;;;;;4906378;29;20470;-67
2022/01/21 00:47:02;;;;;;;0.40;0.20;;;12.70;99.90;;;;;;4909212;29;20458;-67
2022/01/21 00:49:33;;;;;;;0.30;0.23;;;12.50;99.90;;;;;;4926266;29;20478;-67
2022/01/21 00:52:11;;;;;;;0.70;0.27;;;12.30;99.90;;;;;;4921223;29;20481;-67
2022/01/21 00:54:44;;;;;;;0.40;0.30;;;12.30;99.90;;;;;;4922260;29;20490;-67
2022/01/21 00:57:20;;;;;;;0.50;0.30;;;12.10;99.90;;;;;;4920480;29;20463;-64
2022/01/21 00:59:51;;;;;;;0.50;0.50;;;11.90;99.90;;;;;;4921472;29;20867;-65
2022/01/21 01:02:22;;;;;;;0.60;0.33;;;11.90;99.90;;;;;;4917345;29;20460;-65
2022/01/21 01:04:53;;;;;;;0.40;0.30;;;11.90;99.90;;;;;;4916863;29;20466;-67
2022/01/21 01:07:29;;;;;;;0.63;0.40;;;11.90;99.90;;;;;;4920627;29;20464;-65
2022/01/21 01:10:02;;;;;;;0.60;0.23;;;11.80;99.90;;;;;;4917099;29;20459;-66
2022/01/21 01:12:49;;;;;;;0.30;0.20;;;11.80;99.90;;;;;;4924664;29;20450;-65
2022/01/21 01:20:59;;;;;;;1.03;0.33;;;11.50;99.90;;;;;;4917134;29;20444;-65
2022/01/21 01:23:50;;;;;;;0.50;0.50;;;11.40;99.90;;;;;;4923169;29;20494;-65
2022/01/21 01:29:09;;;;;;;0.70;0.47;;;11.30;99.90;;;;;;4918966;29;20486;-65
2022/01/21 01:31:40;;;;;;;1.23;0.30;;;11.30;99.90;;;;;;4915097;29;20482;-65
2022/01/21 01:34:11;;;;;;;2.23;0.40;;;11.20;99.90;;;;;;4919383;29;20525;-65
2022/01/21 01:36:44;;;;;;;0.80;0.40;;;11.20;99.90;;;;;;4916268;29;20487;-65
2022/01/21 01:39:28;;;;;;;0.30;0.30;;;11.10;99.90;;;;;;4915758;29;20526;-65
2022/01/21 01:42:17;;;;;;;0.80;0.37;;;11.10;99.90;;;;;;4915658;29;20451;-67
2022/01/21 01:50:37;;;;;;;0.40;0.30;;;10.80;99.90;;;;;;4923244;29;20455;-64
2022/01/21 01:53:12;;;;;;;0.83;0.47;;;10.70;99.90;;;;;;4915354;29;20495;-63
2022/01/21 01:55:45;;;;;;;0.60;0.47;;;10.60;99.90;;;;;;4920281;29;20875;-64
2022/01/21 01:58:16;;;;;;;1.03;0.93;;;10.50;99.90;;;;;;4910500;29;20628;-64
2022/01/21 02:00:47;;;;;;;0.73;0.73;;;10.50;99.90;;;;;;4919657;29;20629;-64
2022/01/21 02:03:21;;;;;;;0.70;0.70;;;10.40;99.90;;;;;;4928648;29;20451;-65
2022/01/21 02:05:52;;;;;;;0.70;0.70;;;10.30;99.90;;;;;;4918615;29;20469;-63
2022/01/21 02:08:32;;;;;;;0.67;0.50;;;10.20;99.90;;;;;;4923096;29;20468;-65
2022/01/21 02:11:05;;;;;;;0.40;0.40;;;10.20;99.90;;;;;;4922829;29;20462;-64
2022/01/21 02:13:41;;;;;;;0.60;0.50;;;10.10;99.90;;;;;;4919400;29;20495;-63
2022/01/21 02:16:29;;;;;;;0.80;0.80;;;10.00;99.90;;;;;;4921391;29;20458;-63
2022/01/21 02:21:49;;;;;;;1.25;0.70;;;9.90;99.90;;;;;;4926604;29;20438;-63
2022/01/21 02:24:29;;;;;;;1.33;1.10;;;9.80;99.90;;;;;;4922388;29;20201;-64
2022/01/21 02:27:02;;;;;;;1.23;0.90;;;9.70;99.90;;;;;;4924445;29;20518;-63
2022/01/21 02:29:44;;;;;;;1.65;1.55;;;9.70;99.90;;;;;;4924615;29;20462;-63
2022/01/21 02:32:18;;;;;;;1.58;1.35;;;9.60;99.90;;;;;;4922123;29;20302;-65
2022/01/21 02:34:54;;;;;;;1.02;0.95;;;9.50;99.90;;;;;;4927780;29;20230;-63
2022/01/21 02:37:26;;;;;;;1.65;1.30;;;9.40;99.90;;;;;;4919901;29;20210;-65
2022/01/21 02:39:57;;;;;;;1.42;0.90;;;9.40;99.90;;;;;;4921318;29;20298;-62
2022/01/21 02:42:28;;;;;;;0.95;0.88;;;9.40;99.90;;;;;;4926451;29;20211;-64
2022/01/21 02:45:00;;;;;;;0.90;0.68;;;9.30;99.90;;;;;;4922854;29;20215;-63
2022/01/21 02:47:31;;;;;;;0.80;0.80;;;9.30;99.90;;;;;;4922660;29;20203;-64
2022/01/21 02:50:02;;;;;;;0.80;0.80;;;9.20;99.90;;;;;;4912390;29;20303;-64
2022/01/21 02:52:42;;;;;;;1.60;1.15;;;9.30;99.90;;;;;;4924304;29;20201;-64
2022/01/21 02:55:13;;;;;;;1.30;1.20;;;9.30;99.90;;;;;;4923614;29;20219;-63
2022/01/21 02:57:44;;;;;;;1.20;1.10;;;9.40;99.90;;;;;;4919869;29;20203;-61
2022/01/21 03:00:16;;;;;;;1.20;1.10;;;9.40;99.90;;;;;;4923985;29;20459;-64
2022/01/21 03:02:47;;;;;;;0.93;0.93;;;9.40;99.90;;;;;;4924839;29;20203;-67
2022/01/21 03:05:19;;;;;;;0.83;0.83;;;9.50;99.90;;;;;;4913497;29;20573;-63
2022/01/21 03:07:51;;;;;;;0.83;0.83;;;9.50;99.90;;;;;;4920068;29;20951;-68
2022/01/21 03:10:22;;;;;;;1.67;0.60;;;9.50;99.90;;;;;;4921706;29;20487;-65
2022/01/21 03:12:53;;;;;;;0.80;0.80;;;9.40;99.90;;;;;;4920210;29;20535;-64
2022/01/21 03:15:24;;;;;;;1.13;1.03;;;9.30;99.90;;;;;;4918857;29;20503;-65
2022/01/21 03:17:55;;;;;;;1.08;1.02;;;9.20;99.90;;;;;;4909370;29;20794;-65
2022/01/21 03:20:26;;;;;;;1.17;0.90;;;9.00;99.90;;;;;;4924109;29;20230;-71
2022/01/21 03:23:00;;;;;;;1.05;0.95;;;9.10;99.90;;;;;;4919497;29;20439;-67
2022/01/21 03:25:32;;;;;;;1.35;1.23;;;9.10;99.90;;;;;;4922082;29;20213;-69
2022/01/21 03:28:03;;;;;;;1.50;1.20;;;8.90;99.90;;;;;;4915026;29;20299;-68
2022/01/21 03:30:34;;;;;;;1.30;1.27;;;8.70;99.90;;;;;;4923751;29;20306;-69
2022/01/21 03:33:05;;;;;;;1.75;1.65;;;8.70;99.90;;;;;;4922388;29;20203;-66
2022/01/21 03:35:36;;;;;;;1.73;1.63;;;8.70;99.90;;;;;;4921713;29;20238;-65
2022/01/21 03:38:09;;;;;;;1.67;1.58;;;8.60;99.90;;;;;;4923404;29;20226;-65
2022/01/21 03:40:40;;;;;;;2.15;1.92;;;8.60;99.90;;;;;;4927748;29;20273;-66
2022/01/21 03:43:12;;;;;;;2.63;1.45;;;8.60;99.90;;;;;;4920370;29;20270;-66
2022/01/21 03:45:42;;;;;;;4.10;2.13;;;8.60;99.90;;;;;;4921527;29;20568;-67
2022/01/21 03:48:13;;;;;;;2.10;1.90;;;8.60;99.90;;;;;;4924797;29;20261;-66
2022/01/21 03:50:45;;;;;;;1.38;1.27;;;8.60;99.90;;;;;;4923645;29;20266;-66
2022/01/21 03:53:18;;;;;;;1.67;1.58;;;8.60;99.90;;;;;;4917683;29;20225;-66
2022/01/21 03:55:59;;;;;;;1.92;1.75;;;8.60;99.90;;;;;;4923430;29;20234;-66
2022/01/21 03:58:31;;;;;;;3.13;1.60;;;8.80;99.90;;;;;;4915091;29;20206;-67
2022/01/21 04:01:02;;;;;;;1.85;1.75;;;8.80;99.90;;;;;;4918876;29;20258;-67
2022/01/21 04:03:33;;;;;;;1.50;1.40;;;8.80;99.90;;;;;;4921541;29;20218;-67
2022/01/21 04:06:14;;;;;;;1.80;1.70;;;8.70;99.90;;;;;;4921771;29;20270;-66
2022/01/21 04:08:47;;;;;;;1.67;1.58;;;8.70;99.90;;;;;;4909211;29;20209;-66
2022/01/21 04:11:18;;;;;;;1.92;1.63;;;8.50;99.90;;;;;;4919233;29;20221;-63
2022/01/21 04:13:49;;;;;;;3.45;1.80;;;8.40;99.90;;;;;;4917236;29;20219;-65
2022/01/21 04:16:21;;;;;;;1.70;1.60;;;8.20;99.90;;;;;;4916433;29;20692;-65
2022/01/21 04:18:52;;;;;;;2.45;2.00;;;8.20;99.90;;;;;;4913939;29;20226;-66
2022/01/21 04:21:25;;;;;;;2.30;2.10;;;8.10;99.90;;;;;;4918688;29;20549;-64
2022/01/21 04:23:59;;;;;;;2.10;1.90;;;8.00;99.90;;;;;;4912556;29;20218;-66
2022/01/21 04:26:37;;;;;;;2.28;2.08;;;8.00;99.90;;;;;;4916220;29;20214;-65
2022/01/21 04:29:08;;;;;;;5.32;2.72;;;8.00;99.90;;;;;;4920112;29;20301;-65
2022/01/21 04:31:46;;;;;;;2.50;2.30;;;7.90;99.90;;;;;;4921936;29;20210;-63
2022/01/21 04:34:17;;;;;;;1.85;1.75;;;7.90;99.90;;;;;;4917881;29;20230;-64
2022/01/21 04:36:51;;;;;;;2.05;1.60;;;7.90;99.90;;;;;;4917494;29;20322;-64
2022/01/21 04:39:28;;;;;;;1.88;1.77;;;7.90;99.90;;;;;;4914539;29;20333;-63
2022/01/21 04:47:40;;;;;;;2.95;2.13;;;7.80;99.90;;;;;;4925143;29;20289;-66
2022/01/21 04:50:14;;;;;;;1.40;1.30;;;7.80;99.90;;;;;;4920445;29;20210;-64
2022/01/21 04:52:54;;;;;;;1.50;1.40;;;7.80;99.90;;;;;;4911751;29;20214;-67
2022/01/21 04:55:26;;;;;;;1.45;1.35;;;7.70;99.90;;;;;;4925585;29;20332;-64
2022/01/21 04:57:57;;;;;;;2.65;1.20;;;7.80;99.90;;;;;;4911704;29;20235;-65
2022/01/21 05:00:28;;;;;;;1.45;1.23;;;7.80;99.90;;;;;;4917569;29;20203;-64
2022/01/21 05:03:00;;;;;;;1.08;1.08;;;7.80;99.90;;;;;;4927183;29;20199;-65
2022/01/21 05:05:31;;;;;;;1.35;1.25;;;7.80;99.90;;;;;;4925898;29;20257;-64
2022/01/21 05:08:05;;;;;;;1.50;1.20;;;7.80;99.90;;;;;;4916483;29;20283;-66
2022/01/21 05:10:41;;;;;;;1.95;1.10;;;7.90;99.90;;;;;;4917931;29;20221;-64
2022/01/21 05:13:15;;;;;;;1.65;1.55;;;7.90;99.90;;;;;;4911395;29;20253;-61
2022/01/21 05:16:00;;;;;;;1.20;1.10;;;8.00;99.90;;;;;;4914110;29;20231;-64
2022/01/21 05:18:31;;;;;;;2.58;2.00;;;8.00;99.90;;;;;;4919808;29;20294;-66
2022/01/21 05:21:02;;;;;;;2.05;1.52;;;8.00;99.90;;;;;;4920136;29;20335;-64
2022/01/21 05:23:33;;;;;;;1.73;1.63;;;8.10;99.90;;;;;;4914993;29;20217;-64
2022/01/21 05:26:07;;;;;;;1.88;1.77;;;8.10;99.90;;;;;;4919736;29;20217;-64
2022/01/21 05:28:38;;;;;;;1.65;1.30;;;8.10;99.90;;;;;;4922515;29;20297;-63
2022/01/21 05:31:08;;;;;;;1.80;1.10;;;8.10;99.90;;;;;;4916960;29;20226;-63
2022/01/21 05:33:39;;;;;;;2.85;1.20;;;8.20;99.90;;;;;;4923192;29;20270;-64
2022/01/21 05:36:10;;;;;;;1.60;1.50;;;8.20;99.90;;;;;;4916995;29;21075;-64
2022/01/21 05:38:41;;;;;;;1.60;1.50;;;8.20;99.90;;;;;;4927668;29;20203;-65
2022/01/21 05:41:14;;;;;;;1.45;1.35;;;8.20;99.90;;;;;;4922531;29;20202;-66
2022/01/21 05:43:46;;;;;;;2.95;1.27;;;8.20;99.90;;;;;;4922908;29;20298;-66
2022/01/21 05:46:23;;;;;;;1.40;1.30;;;8.20;99.90;;;;;;4924728;29;20199;-66
2022/01/21 05:48:54;;;;;;;2.27;1.30;;;8.20;99.90;;;;;;4919972;29;20317;-64
2022/01/21 05:51:25;;;;;;;1.50;1.40;;;8.10;99.90;;;;;;4926212;29;20563;-64
2022/01/21 05:53:56;;;;;;;1.67;1.27;;;8.10;99.90;;;;;;4925736;29;20207;-65
2022/01/21 05:56:30;;;;;;;1.63;1.42;;;8.00;99.90;;;;;;4919388;29;20242;-65
2022/01/21 05:59:01;;;;;;;1.50;1.40;;;7.90;99.90;;;;;;4920990;29;20210;-64
2022/01/21 06:01:32;;;;;;;3.67;1.17;;;7.90;99.90;;;;;;4929045;29;20214;-65
2022/01/21 06:04:04;;;;;;;2.55;1.35;;;7.90;99.90;;;;;;4923138;29;20195;-65
2022/01/21 06:06:35;;;;;;;1.42;1.20;;;7.80;99.90;;;;;;4915962;29;20556;-65
2022/01/21 06:09:07;;;;;;;1.88;1.70;;;7.90;99.90;;;;;;4922785;29;20207;-64
2022/01/21 06:11:40;;;;;;;2.00;1.88;;;7.90;99.90;;;;;;4924736;29;20267;-64
2022/01/21 06:14:13;;;;;;;2.05;1.60;;;7.90;99.90;;;;;;4928282;29;20211;-64
2022/01/21 06:16:45;;;;;;;1.90;1.80;;;8.00;99.90;;;;;;4924794;29;20798;-64
2022/01/21 06:19:16;;;;;;;2.17;1.85;;;7.90;99.90;;;;;;4926771;29;20207;-64
2022/01/21 06:21:47;;;;;;;2.20;1.60;;;8.00;99.90;;;;;;4926800;29;20195;-64
2022/01/21 06:24:23;;;;;;;2.10;1.50;;;7.90;99.90;;;;;;4912494;29;20241;-64
2022/01/21 06:27:00;;;;;;;2.20;1.70;;;8.00;99.90;;;;;;4927564;29;20911;-64
2022/01/21 06:29:31;;;;;;;1.90;1.80;;;8.00;99.90;;;;;;4924259;29;20289;-64
2022/01/21 06:32:02;;;;;;;1.73;1.63;;;7.80;99.90;;;;;;4925960;29;20215;-64
2022/01/21 06:34:32;;;;;;;1.92;1.52;;;7.70;99.90;;;;;;4926226;29;20199;-65
2022/01/21 06:37:03;;;;;;;1.65;1.55;;;7.80;99.90;;;;;;4928987;29;20314;-65
2022/01/21 06:39:34;;;;;;;2.85;2.50;;;7.70;99.90;;;;;;4924715;29;20620;-65
2022/01/21 06:42:07;;;;;;;2.78;2.58;;;7.70;99.90;;;;;;4928775;29;20596;-65
2022/01/21 06:44:38;;;;;;;2.80;2.60;;;7.80;99.90;;;;;;4923861;29;20238;-65
2022/01/21 06:47:09;;;;;;;3.13;2.83;;;7.70;99.90;;;;;;4921127;29;20222;-65
2022/01/21 06:49:40;;;;;;;3.00;2.70;;;7.80;99.90;;;;;;4920245;29;20239;-65
2022/01/21 06:52:11;;;;;;;3.75;3.45;;;7.90;99.90;;;;;;4913814;29;20198;-64
2022/01/21 06:54:42;;;;;;;3.58;3.20;;;7.90;99.90;;;;;;4913539;29;20298;-66
2022/01/21 06:57:14;;;;;;;3.95;3.55;;;7.90;99.90;;;;;;4924665;29;20230;-65
2022/01/21 06:59:47;;;;;;;7.13;4.68;;;7.90;99.90;;;;;;4922616;29;20213;-64
2022/01/21 07:02:19;;;;;;;4.75;4.30;;;8.00;99.90;;;;;;4926782;29;20566;-66
2022/01/21 07:04:53;;;;;;;4.03;3.65;;;8.00;99.90;;;;;;4920529;29;20539;-65
2022/01/21 07:07:24;;;;;;;4.30;3.90;;;8.00;99.90;;;;;;4921886;29;20589;-65
2022/01/21 07:09:55;;;;;;;3.72;3.42;;;8.10;99.90;;;;;;4922734;29;20223;-65
2022/01/21 07:12:28;;;;;;;3.80;3.55;;;8.10;99.90;;;;;;4923792;29;20207;-66
2022/01/21 07:15:03;;;;;;;4.57;4.15;;;8.10;99.90;;;;;;4925758;29;20202;-64
2022/01/21 07:17:34;;;;;;;5.57;4.20;;;8.10;99.90;;;;;;4924133;29;20233;-65
2022/01/21 07:20:09;;;;;;;4.28;3.92;;;8.10;99.90;;;;;;4927856;29;20222;-66
2022/01/21 07:22:41;;;;;;;4.95;3.60;;;8.20;99.90;;;;;;4927985;29;20225;-65
2022/01/21 07:25:12;;;;;;;5.95;3.35;;;8.20;99.90;;;;;;4916855;29;20203;-66
2022/01/21 07:27:46;;;;;;;3.05;2.83;;;8.20;99.90;;;;;;4923454;29;20299;-65
2022/01/21 07:30:17;;;;;;;3.60;3.30;;;8.30;99.90;;;;;;4927153;29;20213;-66
2022/01/21 07:32:48;;;;;;;3.30;3.10;;;8.30;99.90;;;;;;4927823;29;20206;-65
2022/01/21 07:35:19;;;;;;;3.50;3.20;;;8.20;99.90;;;;;;4927527;29;20206;-65
2022/01/21 07:38:10;;;;;;;4.25;3.75;;;8.20;99.90;;;;;;4928033;29;20231;-65
2022/01/21 07:40:41;;;;;;;3.20;3.00;;;8.20;99.90;;;;;;4918349;29;20310;-65
2022/01/21 07:43:13;;;;;;;3.55;3.25;;;8.20;99.90;;;;;;4922028;29;20282;-65
2022/01/21 07:45:44;;;;;;;2.90;2.70;;;8.20;99.90;;;;;;4923000;29;20218;-65
2022/01/21 07:48:17;;;;;;;3.53;3.22;;;8.10;99.90;;;;;;4917615;29;20261;-65
2022/01/21 07:50:48;;;;;;;2.50;2.30;;;8.20;99.90;;;;;;4927099;29;20206;-66
2022/01/21 07:53:19;;;;;;;3.20;2.60;;;8.20;99.90;;;;;;4928473;29;20528;-65
2022/01/21 07:55:51;;;;;;;3.33;3.03;;;8.20;99.90;;;;;;4922988;29;20210;-65
2022/01/21 07:58:24;;;;;;;3.40;3.10;;;8.20;99.90;;;;;;4925935;29;20219;-65
2022/01/21 08:00:54;;;;;;;3.15;2.95;;;8.10;99.90;;;;;;4915378;29;20718;-65
2022/01/21 08:03:29;;;;;;;3.20;2.90;;;8.10;99.90;;;;;;4927330;29;20201;-65
2022/01/21 08:06:00;;;;;;;3.97;3.58;;;8.10;99.90;;;;;;4919829;29;20270;-65
2022/01/21 08:08:31;;;;;;;3.60;3.33;;;8.10;99.90;;;;;;4927056;29;20191;-65
2022/01/21 08:11:03;;;;;;;4.38;3.97;;;8.00;99.90;;;;;;4925229;29;20209;-65
2022/01/21 08:13:36;;;;;;;4.03;3.65;;;8.00;99.90;;;;;;4926554;29;20629;-66
2022/01/21 08:16:07;;;;;;;3.38;3.13;;;8.00;99.90;;;;;;4923362;29;20203;-66
2022/01/21 08:18:38;;;;;;;3.92;3.63;;;7.90;99.90;;;;;;4920953;29;20221;-66
2022/01/21 08:21:09;;;;;;;6.30;3.70;;;7.90;99.90;;;;;;4921170;29;20211;-66
2022/01/21 08:23:40;;;;;;;4.82;4.40;;;7.90;99.90;;;;;;4926436;29;20208;-65
2022/01/21 08:26:11;;;;;;;5.97;4.47;;;7.90;99.90;;;;;;4917124;29;20581;-65
2022/01/21 08:28:43;;;;;;;4.60;4.10;;;8.00;99.90;;;;;;4925390;29;20286;-66
2022/01/21 08:31:17;;;;;;;4.00;3.70;;;8.00;99.90;;;;;;4922114;29;20291;-66
2022/01/21 08:33:48;;;;;;;6.05;4.28;;;8.00;99.90;;;;;;4923132;29;20360;-65
2022/01/21 08:36:21;;;;;;;4.00;3.60;;;8.00;99.90;;;;;;4918146;29;20187;-65
2022/01/21 08:38:52;;;;;;;3.72;3.42;;;7.90;99.90;;;;;;4913938;29;20694;-65
2022/01/21 08:41:23;;;;;;;3.25;3.05;;;8.00;99.90;;;;;;4924472;29;20210;-65
2022/01/21 08:43:56;;;;;;;3.53;3.22;;;8.00;99.90;;;;;;4911112;29;20405;-65
2022/01/21 08:46:32;;;;;;;3.28;2.97;;;8.00;99.90;;;;;;4926900;29;20281;-65
2022/01/21 08:49:07;;;;;;;3.20;2.88;;;8.10;99.90;;;;;;4917362;29;20245;-65
2022/01/21 08:51:49;;;;;;;3.00;2.70;;;8.10;99.90;;;;;;4909530;29;20539;-65
2022/01/21 08:54:21;;;;;;;3.15;2.90;;;8.00;99.90;;;;;;4912719;29;20187;-65
2022/01/21 08:56:53;;;;;;;3.70;3.13;;;8.10;99.90;;;;;;4923295;29;20230;-65
2022/01/21 08:59:26;;;;;;;3.58;2.97;;;8.10;99.90;;;;;;4920032;29;20205;-65
2022/01/21 09:01:58;;;;;;;3.00;2.70;;;8.20;99.90;;;;;;4913080;29;20207;-65
2022/01/21 09:04:29;;;;;;;3.35;2.45;;;8.10;99.90;;;;;;4925839;29;20213;-65
2022/01/21 09:07:00;;;;;;;3.45;3.25;;;8.10;99.90;;;;;;4917320;29;20213;-65
2022/01/21 09:09:31;;;;;;;3.15;2.85;;;8.20;99.90;;;;;;4912685;29;20266;-65
2022/01/21 09:12:05;;;;;;;3.45;2.92;;;8.20;99.90;;;;;;4915832;29;20226;-65
2022/01/21 09:14:38;;;;;;;3.30;3.00;;;8.20;99.90;;;;;;4917736;29;20273;-65
2022/01/21 09:17:09;;;;;;;2.90;2.70;;;8.10;99.90;;;;;;4921269;29;20223;-65
2022/01/21 09:19:40;;;;;;;3.25;2.92;;;8.00;99.90;;;;;;4925588;29;20293;-65
2022/01/21 09:22:11;;;;;;;3.03;2.80;;;8.00;99.90;;;;;;4920706;29;20202;-65
2022/01/21 09:24:42;;;;;;;3.40;3.10;;;8.00;99.90;;;;;;4916848;29;20206;-65
2022/01/21 09:27:13;;;;;;;3.20;2.90;;;7.90;99.90;;;;;;4917005;29;20206;-66
2022/01/21 09:29:46;;;;;;;3.17;2.88;;;7.90;99.90;;;;;;4923041;29;20199;-65
2022/01/21 09:32:17;;;;;;;2.90;2.60;;;7.80;99.90;;;;;;4918520;29;20250;-65
2022/01/21 09:34:48;;;;;;;3.30;3.00;;;7.70;99.90;;;;;;4924759;29;20211;-65
2022/01/21 09:37:19;;;;;;;3.17;2.88;;;7.60;99.90;;;;;;4923053;29;20668;-65
2022/01/21 09:39:50;;;;;;;4.10;3.33;;;7.50;99.90;;;;;;4918938;29;20236;-65
2022/01/21 09:42:22;;;;;;;2.92;2.63;;;7.50;99.90;;;;;;4910248;29;20199;-65
2022/01/21 09:44:55;;;;;;;2.85;2.63;;;7.40;99.90;;;;;;4923217;29;20234;-65
2022/01/21 09:47:31;;;;;;;3.38;2.97;;;7.40;99.90;;;;;;4915789;29;20289;-64
2022/01/21 09:50:03;;;;;;;2.97;2.55;;;7.40;99.90;;;;;;4917040;29;20262;-65
2022/01/21 09:52:34;;;;;;;4.95;3.15;;;7.40;99.90;;;;;;4925991;29;20207;-65
2022/01/21 09:55:06;;;;;;;4.95;4.45;;;7.40;99.90;;;;;;4913286;29;20275;-65
2022/01/21 09:57:37;;;;;;;3.03;2.83;;;7.40;99.90;;;;;;4907456;29;20273;-65
2022/01/21 10:00:11;;;;;;;2.70;2.22;;;7.50;99.90;;;;;;4919974;29;20225;-65
2022/01/21 10:02:43;;;;;;;3.67;2.80;;;7.40;99.90;;;;;;4921125;29;20203;-65
2022/01/21 10:05:15;;;;;;;4.68;2.90;;;7.40;99.90;;;;;;4922130;29;20206;-65
2022/01/21 10:07:49;;;;;;;3.35;3.08;;;7.40;99.90;;;;;;4921961;29;20191;-65
2022/01/21 10:10:20;;;;;;;2.97;2.75;;;7.50;99.90;;;;;;4924980;29;20249;-65
2022/01/21 10:13:01;;;;;;;3.67;3.22;;;7.40;99.90;;;;;;4916950;29;20208;-65
2022/01/21 10:15:34;;;;;;;2.65;2.42;;;7.50;99.90;;;;;;4912031;29;20202;-65
2022/01/21 10:18:07;;;;;;;3.10;2.90;;;7.40;99.90;;;;;;4924804;29;20227;-65
2022/01/21 10:20:56;;;;;;;4.05;3.00;;;7.40;99.90;;;;;;4923141;29;20202;-66
2022/01/21 10:23:28;;;;;;;3.90;2.88;;;7.40;99.90;;;;;;4918440;29;20210;-65
2022/01/21 10:26:03;;;;;;;2.97;2.72;;;7.30;99.90;;;;;;4918423;29;20271;-65
2022/01/21 10:28:34;;;;;;;3.15;2.85;;;7.20;99.90;;;;;;4922428;29;20210;-65
2022/01/21 10:31:13;;;;;;;3.50;3.20;;;7.10;99.90;;;;;;4925550;29;20219;-65
2022/01/21 10:33:47;;;;;;;3.80;3.17;;;7.00;99.90;;;;;;4927627;29;20207;-65
2022/01/21 10:36:24;;;;;;;3.80;3.47;;;6.90;99.90;;;;;;4916214;29;20206;-65
2022/01/21 10:39:03;;;;;;;3.10;2.90;;;6.90;99.90;;;;;;4924659;29;20244;-66
2022/01/21 10:41:35;;;;;;;3.92;3.63;;;6.80;99.90;;;;;;4927878;29;20211;-65
2022/01/21 10:44:10;;;;;;;3.97;3.13;;;6.70;99.90;;;;;;4921345;29;20515;-65
2022/01/21 10:46:46;;;;;;;3.25;3.05;;;6.70;99.90;;;;;;4913068;29;20602;-65
2022/01/21 10:49:18;;;;;;;3.88;3.28;;;6.70;99.90;;;;;;4915068;29;20231;-65
2022/01/21 10:51:53;;;;;;;3.15;2.95;;;6.60;99.90;;;;;;4913441;29;20234;-65
2022/01/21 10:54:26;;;;;;;3.63;3.33;;;6.60;99.90;;;;;;4922517;29;20203;-65
2022/01/21 10:57:12;;;;;;;3.60;3.30;;;6.50;99.90;;;;;;4925301;29;20310;-65
2022/01/21 10:59:58;;;;;;;4.10;2.90;;;6.50;99.90;;;;;;4926482;29;20241;-65
2022/01/21 11:02:54;;;;;;;3.92;3.63;;;6.50;99.90;;;;;;4920607;29;20203;-65
2022/01/21 11:05:30;;;;;;;3.70;3.40;;;6.40;99.90;;;;;;4914778;29;20203;-65
2022/01/21 11:08:05;;;;;;;3.90;3.35;;;6.40;99.90;;;;;;4926934;29;20199;-65
2022/01/21 11:10:47;;;;;;;3.42;3.13;;;6.50;99.90;;;;;;4920689;29;20226;-65
2022/01/21 11:13:43;;;;;;;4.20;3.10;;;6.50;99.90;;;;;;4927350;29;20221;-65
2022/01/21 11:16:22;;;;;;;3.50;3.20;;;6.40;99.90;;;;;;4926773;29;20213;-65
2022/01/21 11:19:16;;;;;;;5.57;3.83;;;6.30;99.90;;;;;;4921952;29;20222;-64
2022/01/21 11:21:54;;;;;;;4.20;3.28;;;6.30;99.90;;;;;;4926070;29;20209;-65
2022/01/21 11:24:28;;;;;;;3.60;3.30;;;6.10;99.90;;;;;;4926771;29;20202;-65
2022/01/21 11:27:10;;;;;;;3.80;3.40;;;6.10;99.90;;;;;;4922498;29;20217;-65
2022/01/21 11:29:42;;;;;;;4.32;3.92;;;6.10;99.90;;;;;;4920750;29;20187;-65
2022/01/21 11:32:14;;;;;;;3.80;3.10;;;6.10;99.90;;;;;;4922759;29;20526;-65
2022/01/21 11:34:46;;;;;;;5.18;3.58;;;6.10;99.90;;;;;;4926351;29;20215;-65
2022/01/21 11:37:18;;;;;;;3.03;2.83;;;6.00;99.90;;;;;;4918797;29;20575;-65
2022/01/21 11:39:53;;;;;;;4.35;3.95;;;5.90;99.90;;;;;;4925233;29;20249;-65
2022/01/21 11:42:25;;;;;;;5.20;3.80;;;5.80;99.90;;;;;;4927687;29;20206;-65
2022/01/21 11:45:04;;;;;;;4.43;3.90;;;5.90;99.90;;;;;;4915237;29;20549;-64
2022/01/21 11:47:50;;;;;;;5.15;4.00;;;5.90;99.90;;;;;;4923472;29;20222;-65
2022/01/21 11:50:22;;;;;;;4.95;4.15;;;5.90;99.90;;;;;;4926033;29;20206;-64
2022/01/21 11:52:53;;;;;;;3.58;3.28;;;5.90;99.90;;;;;;4919381;29;20207;-64
2022/01/21 11:55:35;;;;;;;4.53;4.10;;;5.80;99.90;;;;;;4924503;29;20221;-63
2022/01/21 11:58:24;;;;;;;6.13;4.28;;;5.80;99.90;;;;;;4916048;29;20191;-65
2022/01/21 12:00:55;;;;;;;5.10;4.60;;;5.70;99.90;;;;;;4919410;29;20286;-64
2022/01/21 12:03:46;;;;;;;5.55;4.28;;;5.70;99.90;;;;;;4917555;29;20643;-64
2022/01/21 12:06:36;;;;;;;4.57;4.18;;;5.60;99.90;;;;;;4917144;29;20207;-64
2022/01/21 12:09:10;;;;;;;4.80;4.40;;;5.60;99.90;;;;;;4925831;29;20221;-64
2022/01/21 12:11:41;;;;;;;3.75;3.45;;;5.60;99.90;;;;;;4926767;29;20218;-64
2022/01/21 12:14:49;;;;;;;4.53;4.13;;;5.40;99.90;;;;;;4917172;29;20199;-64
2022/01/21 12:17:43;;;;;;;5.05;4.55;;;5.50;99.90;;;;;;4925895;29;20214;-64
2022/01/21 12:20:15;;;;;;;4.22;3.83;;;5.60;99.90;;;;;;4925285;29;20253;-64
2022/01/21 12:23:14;;;;;;;4.82;4.43;;;5.60;99.90;;;;;;4924860;29;20203;-64
2022/01/21 12:26:17;;;;;;;4.28;3.88;;;5.70;99.90;;;;;;4925645;29;20237;-64
2022/01/21 12:29:09;;;;;;;6.05;4.05;;;5.70;99.90;;;;;;4923425;29;20221;-64
2022/01/21 12:32:01;;;;;;;4.57;4.25;;;5.70;99.90;;;;;;4922945;29;20207;-62
2022/01/21 12:35:14;;;;;;;5.47;4.82;;;5.60;99.90;;;;;;4916236;29;20226;-64
2022/01/21 12:41:37;;;;;;;5.50;5.00;;;5.60;99.90;;;;;;4925988;29;20234;-64
2022/01/21 12:44:10;;;;;;;5.65;4.75;;;5.60;99.90;;;;;;4917142;29;20199;-64
2022/01/21 12:46:44;;;;;;;7.30;5.55;;;5.70;99.90;;;;;;4921907;29;20750;-64
2022/01/21 12:49:47;;;;;;;7.88;5.55;;;5.70;99.90;;;;;;4920825;29;20699;-64
2022/01/21 12:52:29;;;;;;;6.40;5.05;;;5.80;99.90;;;;;;4926788;29;20548;-64
2022/01/21 12:57:52;;;;;;;8.20;5.18;;;5.80;99.90;;;;;;4921415;29;20302;-64
2022/01/21 13:00:24;;;;;;;6.00;5.05;;;5.90;99.90;;;;;;4920602;29;20243;-65
2022/01/21 13:03:00;;;;;;;6.43;5.80;;;6.00;99.90;;;;;;4916107;29;20282;-65
2022/01/21 13:05:44;;;;;;;7.47;5.15;;;5.90;99.90;;;;;;4911388;29;20206;-65
2022/01/21 13:08:29;;;;;;;6.95;5.88;;;5.90;99.90;;;;;;4921839;29;20230;-65
2022/01/21 13:11:12;;;;;;;6.95;5.20;;;5.90;99.90;;;;;;4923841;29;20194;-65
2022/01/21 13:13:53;;;;;;;6.25;5.20;;;5.90;99.90;;;;;;4913245;29;20251;-65
2022/01/21 13:16:29;;;;;;;6.30;5.68;;;6.00;99.90;;;;;;4915377;29;20215;-65
2022/01/21 13:19:05;;;;;;;5.30;4.80;;;6.00;99.90;;;;;;4921880;29;20233;-64
2022/01/21 13:21:37;;;;;;;6.78;6.07;;;6.00;99.90;;;;;;4922502;29;20643;-65
2022/01/21 13:26:57;;;;;;;6.13;5.53;;;6.00;99.90;;;;;;4918058;29;20217;-64
2022/01/21 13:29:37;;;;;;;5.75;5.07;;;6.00;99.90;;;;;;4923279;29;20205;-64
2022/01/21 13:32:08;;;;;;;6.78;6.07;;;6.10;99.90;;;;;;4919173;29;20271;-64
2022/01/21 13:34:44;;;;;;;6.35;5.75;;;6.20;99.90;;;;;;4920680;29;20203;-65
2022/01/21 13:37:18;;;;;;;6.68;5.63;;;6.20;99.90;;;;;;4924456;29;20270;-64
2022/01/21 13:40:08;;;;;;;6.28;5.68;;;6.30;99.90;;;;;;4917395;29;20230;-65
2022/01/21 13:42:41;;;;;;;6.32;5.68;;;6.20;99.90;;;;;;4923543;29;20353;-64
2022/01/21 13:45:12;;;;;;;7.05;6.35;;;6.10;99.90;;;;;;4919740;29;20278;-65
2022/01/21 13:47:45;;;;;;;6.10;5.38;;;6.20;99.90;;;;;;4925388;29;20263;-65
2022/01/21 13:50:18;;;;;;;5.53;5.03;;;6.30;99.90;;;;;;4916728;29;20198;-64
2022/01/21 13:52:52;;;;;;;6.28;5.72;;;6.30;99.90;;;;;;4923063;29;20202;-64
2022/01/21 13:55:32;;;;;;;5.63;5.03;;;6.40;99.90;;;;;;4918655;29;20568;-65
2022/01/21 13:58:07;;;;;;;5.80;5.32;;;6.40;99.90;;;;;;4929437;29;20202;-64
2022/01/21 14:00:40;;;;;;;8.15;5.85;;;6.40;99.90;;;;;;4928075;29;20225;-64
2022/01/21 14:03:22;;;;;;;5.25;4.75;;;6.40;99.90;;;;;;4915309;29;20212;-64
2022/01/21 14:05:56;;;;;;;6.05;5.45;;;6.50;99.90;;;;;;4914319;29;20206;-64
2022/01/21 14:08:30;;;;;;;5.45;4.90;;;6.40;99.90;;;;;;4929706;29;20308;-65
2022/01/21 14:11:06;;;;;;;6.30;5.70;;;6.40;99.90;;;;;;4928244;29;20249;-64
2022/01/21 14:13:40;;;;;;;5.82;5.32;;;6.50;99.90;;;;;;4920074;29;20210;-64
2022/01/21 14:16:13;;;;;;;10.18;5.50;;;6.50;99.90;;;;;;4921143;29;20202;-64
2022/01/21 14:18:45;;;;;;;6.65;6.05;;;6.50;99.90;;;;;;4916598;29;20659;-64